KBJI/BJI METAR and TAF weather

Enter ICAO airport designator
Station Type Date Time Source
KBJI METAR 2022/12/04 04:35 UTC NOAA

KBJI 040435Z AUTO 00000KT 10SM CLR M16/M18 A3005 RMK AO2 T11571183


Station Type Date Time Source
KBJI Decoded METAR 2022/12/04 04:35 UTC NOAA

Bemidji, MN, United States (KBJI) 47-30N 094-56W 420M
Dec 03, 2022 - 11:35 PM EST / 2022.12.04 0435 UTC
Wind: Calm:0
Visibility: 10 mile(s):0
Sky conditions: clear
Temperature: 3.7 F (-15.7 C)
Dew Point: -0.9 F (-18.3 C)
Relative Humidity: 80%
Pressure (altimeter): 30.05 in. Hg (1017 hPa)
ob: KBJI 040435Z AUTO 00000KT 10SM CLR M16/M18 A3005 RMK AO2 T11571183
cycle: 4

Station Type Date Time Source
KBJI TAF 2022/12/03 23:40 UTC NOAA

TAF
AMD KBJI 032238Z 0323/0418 VRB05KT P6SM FEW200

Example: see airport list